This is the latest recevied weather packets stored in our database for station/object IQ1LY-3. If no packets are shown the sender has not sent any weather packets the latest 10 day(s).
| Time | Temp. | Humidity | Pressure | Rain* | Wind** | Luminosity | Snow |
|---|---|---|---|---|---|---|---|
| 1777748679 | 16.11° C | 56% | 1020.7 hPa | 0 mm | - | - | - |
| 1777740776 | 21.11° C | 38% | 1020.7 hPa | 0 mm | - | - | - |
| 1777735875 | 22.22° C | 36% | 1021.7 hPa | 0 mm | - | - | - |
| 1777729267 | 21.67° C | 39% | 1023 hPa | 0 mm | - | - | - |
| 1777721867 | 21.67° C | 45% | 1024.4 hPa | 0 mm | - | - | - |
| 1777720032 | 20.56° C | 46% | 1024.4 hPa | 0 mm | - | - | - |
| 1777715163 | 21.11° C | 47% | 1025.4 hPa | 0 mm | - | - | - |
| 1777713360 | 21.67° C | 44% | 1025.4 hPa | 0 mm | - | - | - |
| 1777710894 | 21.67° C | 46% | 1025.4 hPa | 0 mm | - | - | - |
| 1777709029 | 20.56° C | 50% | 1025.7 hPa | 0 mm | - | - | - |
| 1777705393 | 17.22° C | 58% | 1025.7 hPa | 0 mm | - | - | - |
| 1777704160 | 16.11° C | 61% | 1025.7 hPa | 0 mm | - | - | - |
| 1777698151 | 11.67° C | 70% | 1025.4 hPa | 0 mm | - | - | - |
| 1777692589 | 11.11° C | 69% | 1025.1 hPa | 0 mm | - | - | - |
| 1777681494 | 12.78° C | 62% | 1025.1 hPa | 0 mm | - | - | - |
| 1777675486 | 13.89° C | 57% | 1024.7 hPa | 0 mm | - | - | - |
| 1777673652 | 13.89° C | 56% | 1024.7 hPa | 0 mm | - | - | - |
| 1777670586 | 15° C | 54% | 1024.4 hPa | 0 mm | - | - | - |
| 1777669985 | 14.44° C | 54% | 1024.4 hPa | 0 mm | - | - | - |
| 1777663859 | 18.33° C | 43% | 1023.4 hPa | 0 mm | - | - | - |
| 1777663227 | 18.89° C | 41% | 1023 hPa | 0 mm | - | - | - |
| 1777659579 | 20.56° C | 38% | 1022.7 hPa | 0 mm | - | - | - |
| 1777657776 | 21.11° C | 37% | 1022.7 hPa | 0 mm | - | - | - |
| 1777655310 | 22.78° C | 35% | 1022.4 hPa | 0 mm | - | - | - |
| 1777654709 | 23.33° C | 34% | 1022.4 hPa | 0 mm | - | - | - |
* Rain latest hour (hover to see other rain measurements)
** Current wind speed in m/s (hover to see current wind gust speed)